Flight Track Log - Related Links

Times and Time Zones

All times are in EDT time to prevent confusion due to time zone crossing. See the UAL4679 flight status page for this flight to view local times or setup timezone preferences in your user account.

Time Position Orientation Groundspeed Altitude Reporting Facility
EDT Latitude Longitude Course Direction KTS MPH feet Rate Location/Type
Tue 03:59:30 PM 40.6667 -74.1833 194° South 161 185 600  Level New York TRACON
Tue 04:00:30 PM 40.6167 -74.2167 207° Southwest 226 260 2,200 1,950 Climbing New York TRACON
Tue 04:01:30 PM 40.5667 -74.2667 217° Southwest 257 296 4,500 1,900 Climbing New York TRACON
Tue 04:02:00 PM 40.3971 -74.1985 159° South  Level FlightAware Approximate
Tue 04:02:30 PM 40.4833 -74.2500 171° South 254 292 6,000  Level New York TRACON
Tue 04:03:00 PM 40.2977 -74.1508 194° South  Level FlightAware Approximate
Tue 04:03:30 PM 40.4167 -74.2167 159° South 265 305 6,100  Level New York TRACON
Tue 04:04:00 PM 40.1948 -74.1851 194° South  Level FlightAware Approximate
Tue 04:04:30 PM 40.3500 -74.1833 159° South 256 295 6,400  Level New York TRACON
Tue 04:05:18 PM 40.3044 -74.1647 163° South 276 318 7,800 1,868 Climbing New York Center
Tue 04:06:16 PM 40.2289 -74.1883 193° South 276 318 9,700 1,729 Climbing New York Center
Tue 04:07:16 PM 40.1489 -74.2114 192° South 281 323 11,200 1,240 Climbing New York Center
Tue 04:08:17 PM 40.0689 -74.2347 193° South 312 359 12,200 889 Climbing New York Center
Tue 04:08:37 PM 40.0350 -74.2419 189° South 352 405 12,400 1,041 Climbing Washington Center
Tue 04:10:18 PM 39.9181 -74.4031 227° Southwest 337 388 14,300 990 Climbing New York Center
Tue 04:11:51 PM 39.8047 -74.5328 221° Southwest 372 428 15,600 914 Climbing Washington Center
Tue 04:12:49 PM 39.7242 -74.6256 222° Southwest 377 434 16,600 1,008 Climbing Washington Center
Tue 04:13:50 PM 39.6417 -74.7183 221° Southwest 388 447 17,600 843 Climbing Washington Center
Tue 04:14:50 PM 39.5528 -74.8192 221° Southwest 388 447 18,300 800 Climbing Washington Center
Tue 04:15:50 PM 39.4719 -74.9167 223° Southwest 388 447 19,200 942 Climbing Washington Center
Tue 04:16:51 PM 39.3911 -75.0089 221° Southwest 388 447 20,200 1,000 Climbing Washington Center
Tue 04:17:50 PM 39.3061 -75.1033 221° Southwest 388 447 21,200 1,008 Climbing Washington Center
Tue 04:18:50 PM 39.2000 -75.1578 202° Southwest 393 452 22,200 992 Climbing Washington Center
Tue 04:19:51 PM 39.0919 -75.2011 197° South 399 459 23,200 958 Climbing Washington Center
Tue 04:20:49 PM 38.9817 -75.2497 199° South 411 473 24,100 958 Climbing Washington Center
Tue 04:21:50 PM 38.8753 -75.2903 197° South 411 473 25,100 992 Climbing Washington Center
Tue 04:22:50 PM 38.7692 -75.3361 199° South 411 473 26,100 1,008 Climbing Washington Center
Tue 04:23:49 PM 38.6628 -75.3817 198° South 406 467 27,100 958 Climbing Washington Center
Tue 04:24:49 PM 38.5589 -75.4297 200° South 401 461 28,000 942 Climbing Washington Center
Tue 04:25:50 PM 38.4714 -75.5069 215° Southwest 396 456 29,000 984 Climbing Washington Center
Tue 04:26:51 PM 38.3836 -75.5811 214° Southwest 390 449 30,000 958 Climbing Washington Center
Tue 04:27:49 PM 38.3044 -75.6472 213° Southwest 390 449 30,900 966 Climbing Washington Center
Tue 04:28:49 PM 38.2169 -75.7239 215° Southwest 390 449 31,900 950 Climbing Washington Center
Tue 04:29:49 PM 38.1292 -75.8003 214° Southwest 390 449 32,800 950 Climbing Washington Center
Tue 04:30:49 PM 38.0394 -75.8792 215° Southwest 390 449 33,800 992 Climbing Washington Center
Tue 04:31:50 PM 37.9536 -75.9553 215° Southwest 390 449 34,800 950 Climbing Washington Center
Tue 04:32:49 PM 37.8678 -76.0283 214° Southwest 390 449 35,700 605 Climbing Washington Center
Tue 04:33:49 PM 37.7758 -76.1172 217° Southwest 385 443 36,000 148 Climbing Washington Center
Tue 04:34:51 PM 37.6900 -76.1822 211° Southwest 390 449 36,000  Level Washington Center
Tue 04:35:48 PM 37.5956 -76.2628 214° Southwest 400 460 36,000  Level Washington Center
Tue 04:36:49 PM 37.5014 -76.3458 215° Southwest 413 475 36,000  Level Washington Center
Tue 04:37:49 PM 37.4050 -76.4258 213° Southwest 418 481 36,000  Level Washington Center
Tue 04:38:50 PM 37.3083 -76.5083 214° Southwest 418 481 36,000  Level Washington Center
Tue 04:39:51 PM 37.2139 -76.5881 214° Southwest 418 481 36,000  Level Washington Center
Tue 04:40:51 PM 37.1172 -76.6703 214° Southwest 418 481 36,000  Level Washington Center
Tue 04:41:49 PM 37.0225 -76.7547 215° Southwest 418 481 36,000  Level Washington Center
Tue 04:42:49 PM 36.9258 -76.8364 214° Southwest 418 481 36,000  Level Washington Center
Tue 04:43:51 PM 36.8289 -76.9153 213° Southwest 423 487 36,000  Level Washington Center
Tue 04:44:51 PM 36.7300 -76.9967 213° Southwest 423 487 36,000  Level Washington Center
Tue 04:45:49 PM 36.6369 -77.0856 217° Southwest 423 487 36,000  Level Washington Center
Tue 04:46:51 PM 36.5442 -77.1742 218° Southwest 423 487 36,000  Level Washington Center
Tue 04:47:51 PM 36.4511 -77.2628 217° Southwest 423 487 36,000  Level Washington Center
Tue 04:48:51 PM 36.3558 -77.3508 217° Southwest 423 487 36,000  Level Washington Center
Tue 04:49:50 PM 36.2628 -77.4389 217° Southwest 423 487 36,000  Level Washington Center
Tue 04:50:50 PM 36.1717 -77.5244 217° Southwest 423 487 36,000  Level Washington Center
Tue 04:51:51 PM 36.0786 -77.6119 217° Southwest 423 487 36,000  Level Washington Center
Tue 04:52:51 PM 35.9831 -77.6994 217° Southwest 428 493 36,000  Level Washington Center
Tue 04:53:49 PM 35.8814 -77.7814 213° Southwest 434 499 36,000  Level Washington Center
Tue 04:54:50 PM 35.7819 -77.8581 212° Southwest 434 499 36,000  Level Washington Center
Tue 04:55:50 PM 35.6825 -77.9369 213° Southwest 439 505 36,000  Level Washington Center
Tue 04:56:51 PM 35.5786 -78.0156 212° Southwest 439 505 36,000  Level Washington Center
Tue 04:57:49 PM 35.4767 -78.0967 213° Southwest 444 511 36,000  Level Washington Center
Tue 04:58:50 PM 35.3728 -78.1750 212° Southwest 444 511 36,000  Level Washington Center
Tue 04:59:50 PM 35.2711 -78.2531 212° Southwest 444 511 36,000  Level Washington Center
Tue 05:00:51 PM 35.1689 -78.3361 214° Southwest 444 511 36,000  Level Washington Center
Tue 05:01:49 PM 35.0650 -78.4139 212° Southwest 444 511 36,000  Level Washington Center
Tue 05:02:49 PM 34.9628 -78.4939 213° Southwest 444 511 36,000  Level Washington Center
Tue 05:03:50 PM 34.8586 -78.5736 212° Southwest 444 511 36,000  Level Washington Center
Tue 05:05:52 PM 34.6503 -78.7308 212° Southwest 426 490 36,000  Level Jacksonville Center
Tue 05:06:52 PM 34.5525 -78.8061 212° Southwest 421 484 36,000  Level Jacksonville Center
Tue 05:07:52 PM 34.4550 -78.8864 214° Southwest 421 484 36,000  Level Jacksonville Center
Tue 05:08:52 PM 34.3592 -78.9586 212° Southwest 421 484 36,000  Level Jacksonville Center
Tue 05:09:52 PM 34.2656 -79.0308 213° Southwest 421 484 36,000  Level Jacksonville Center
Tue 05:10:52 PM 34.1617 -79.1133 213° Southwest 416 479 36,000  Level Jacksonville Center
Tue 05:11:52 PM 34.0697 -79.1847 213° Southwest 405 466 36,000  Level Jacksonville Center
Tue 05:12:52 PM 33.9800 -79.2539 213° Southwest 405 466 36,000 -100 Level Jacksonville Center
Tue 05:13:52 PM 33.8881 -79.3228 212° Southwest 400 460 35,800 -600 Descending Jacksonville Center
Tue 05:14:52 PM 33.7942 -79.3964 213° Southwest 400 460 34,800 -900 Descending Jacksonville Center
Tue 05:15:52 PM 33.7125 -79.4569 212° Southwest 401 461 34,000 -400 Descending Jacksonville Center
Tue 05:16:52 PM 33.6164 -79.5331 213° Southwest 406 467 34,000  Level Jacksonville Center
Tue 05:17:52 PM 33.5183 -79.6092 213° Southwest 412 474 34,000  Level Jacksonville Center
Tue 05:18:52 PM 33.4158 -79.6875 213° Southwest 429 494 34,000  Level Jacksonville Center
Tue 05:19:52 PM 33.3136 -79.7658 213° Southwest 434 499 34,000  Level Jacksonville Center
Tue 05:20:52 PM 33.2131 -79.8414 212° Southwest 434 499 34,000 -450 Level Jacksonville Center
Tue 05:21:52 PM 33.1147 -79.9167 213° Southwest 434 499 33,100 -950 Descending Jacksonville Center
Tue 05:22:52 PM 33.0161 -79.9892 212° Southwest 422 486 32,100 -1,000 Descending Jacksonville Center
Tue 05:23:52 PM 32.9197 -80.0617 212° Southwest 422 486 31,100 -1,000 Descending Jacksonville Center
Tue 05:24:52 PM 32.8253 -80.1364 214° Southwest 422 486 30,100 -550 Descending Jacksonville Center
Tue 05:25:52 PM 32.7269 -80.2108 212° Southwest 422 486 30,000 -50 Descending Jacksonville Center
Tue 05:26:52 PM 32.6178 -80.2931 212° Southwest 422 486 30,000  Level Jacksonville Center
Tue 05:27:52 PM 32.5150 -80.3697 212° Southwest 427 491 30,000  Level Jacksonville Center
Tue 05:28:52 PM 32.4103 -80.4492 213° Southwest 433 498 30,000 -400 Level Jacksonville Center
Tue 05:29:52 PM 32.3094 -80.5256 213° Southwest 433 498 29,200 -900 Descending Jacksonville Center
Tue 05:30:52 PM 32.2064 -80.5994 211° Southwest 439 505 28,200 -1,000 Descending Jacksonville Center
Tue 05:31:52 PM 32.1053 -80.6756 213° Southwest 433 498 27,200 -1,000 Descending Jacksonville Center
Tue 05:32:52 PM 32.0044 -80.7539 213° Southwest 441 507 26,200 -1,000 Descending Jacksonville Center
Tue 05:33:52 PM 31.9094 -80.8222 211° Southwest 441 507 25,200 -1,050 Descending Jacksonville Center
Tue 05:34:52 PM 31.7961 -80.9053 212° Southwest 446 513 24,100 -1,050 Descending Jacksonville Center
Tue 05:35:52 PM 31.7031 -80.9708 211° Southwest 446 513 23,100 -550 Descending Jacksonville Center
Tue 05:36:52 PM 31.5917 -81.0536 212° Southwest 446 513 23,000 -500 Descending Jacksonville Center
Tue 05:37:52 PM 31.4883 -81.1264 211° Southwest 446 513 22,100 -1,900 Descending Jacksonville Center
Tue 05:38:52 PM 31.4014 -81.1911 212° Southwest 429 494 19,200 -2,950 Descending Jacksonville Center
Tue 05:39:52 PM 31.3064 -81.2633 213° Southwest 413 475 16,200 -3,000 Descending Jacksonville Center
Tue 05:40:52 PM 31.2153 -81.3281 211° Southwest 406 467 13,200 -3,149 Descending Jacksonville Center
Tue 05:41:33 PM 31.1428 -81.3781 211° Southwest 370 426 10,900 -2,600 Descending Jacksonville Center
Tue 05:41:52 PM 31.1261 -81.3903 212° Southwest 389 448 10,600 -1,167 Descending Jacksonville Center
Tue 05:42:09 PM 31.0911 -81.4175 214° Southwest 361 415 10,200 -700 Descending Jacksonville Center
Tue 05:42:52 PM 31.0392 -81.4522 210° Southwest 376 433 9,900 -175 Descending Jacksonville Center
Tue 05:43:52 PM 30.9522 -81.5094 209° Southwest 371 427 9,900 -300 Level Jacksonville Center
Tue 05:44:52 PM 30.8756 -81.5589 209° Southwest 350 403 9,300 -900 Descending Jacksonville Center
Tue 05:45:12 PM 30.8422 -81.5786 207° Southwest 272 313 8,700 -1,600 Descending Jacksonville Center
Tue 05:45:52 PM 30.8111 -81.6008 212° Southwest 308 354 7,700 -1,855 Descending Jacksonville Center
Tue 05:46:07 PM 30.7842 -81.6183 209° Southwest 273 314 7,000 -1,800 Descending Jacksonville Center
Tue 05:46:52 PM 30.7447 -81.6431 208° Southwest 286 329 5,900 -1,467 Descending Jacksonville Center

Login

Don't have an account? Register now (free) for customized features, flight alerts, and more!